sensor_id;sensor_type;location;lat;lon;timestamp;P1;durP1;ratioP1;P2;durP2;ratioP2
2898;SDS011;1459;50.864;6.438;2022-11-30T00:00:12;82.25;;;37.85;;
2898;SDS011;1459;50.864;6.438;2022-11-30T00:02:40;83.55;;;35.97;;
2898;SDS011;1459;50.864;6.438;2022-11-30T00:05:07;83.43;;;35.25;;
2898;SDS011;1459;50.864;6.438;2022-11-30T00:07:34;82.45;;;38.60;;
2898;SDS011;1459;50.864;6.438;2022-11-30T00:10:02;78.43;;;36.35;;
2898;SDS011;1459;50.864;6.438;2022-11-30T00:12:30;76.15;;;35.10;;
2898;SDS011;1459;50.864;6.438;2022-11-30T00:14:57;76.65;;;32.42;;
2898;SDS011;1459;50.864;6.438;2022-11-30T00:17:24;74.70;;;35.95;;
2898;SDS011;1459;50.864;6.438;2022-11-30T00:19:51;75.68;;;33.72;;
2898;SDS011;1459;50.864;6.438;2022-11-30T00:22:18;74.82;;;35.33;;
2898;SDS011;1459;50.864;6.438;2022-11-30T00:24:45;81.97;;;35.90;;
2898;SDS011;1459;50.864;6.438;2022-11-30T00:27:14;88.90;;;35.08;;
2898;SDS011;1459;50.864;6.438;2022-11-30T00:29:41;79.72;;;32.35;;
2898;SDS011;1459;50.864;6.438;2022-11-30T00:32:07;88.05;;;34.10;;
2898;SDS011;1459;50.864;6.438;2022-11-30T00:34:34;74.13;;;33.45;;
2898;SDS011;1459;50.864;6.438;2022-11-30T00:37:01;87.70;;;36.75;;
2898;SDS011;1459;50.864;6.438;2022-11-30T00:39:28;82.07;;;35.03;;
2898;SDS011;1459;50.864;6.438;2022-11-30T00:41:55;91.28;;;36.47;;
2898;SDS011;1459;50.864;6.438;2022-11-30T00:44:24;105.80;;;38.70;;
2898;SDS011;1459;50.864;6.438;2022-11-30T00:46:51;102.93;;;37.13;;
2898;SDS011;1459;50.864;6.438;2022-11-30T00:49:18;93.80;;;37.90;;
2898;SDS011;1459;50.864;6.438;2022-11-30T00:51:45;88.80;;;38.22;;
2898;SDS011;1459;50.864;6.438;2022-11-30T00:54:12;99.30;;;39.97;;
2898;SDS011;1459;50.864;6.438;2022-11-30T00:56:39;98.43;;;36.03;;
2898;SDS011;1459;50.864;6.438;2022-11-30T00:59:05;83.68;;;34.67;;
2898;SDS011;1459;50.864;6.438;2022-11-30T01:01:34;87.38;;;36.45;;
2898;SDS011;1459;50.864;6.438;2022-11-30T01:04:01;83.15;;;35.17;;
2898;SDS011;1459;50.864;6.438;2022-11-30T01:06:28;101.20;;;39.75;;
2898;SDS011;1459;50.864;6.438;2022-11-30T01:08:56;80.03;;;33.10;;
2898;SDS011;1459;50.864;6.438;2022-11-30T01:11:24;92.88;;;35.05;;
2898;SDS011;1459;50.864;6.438;2022-11-30T01:13:52;93.35;;;36.75;;
2898;SDS011;1459;50.864;6.438;2022-11-30T01:16:21;91.40;;;34.60;;
2898;SDS011;1459;50.864;6.438;2022-11-30T01:18:51;88.20;;;36.05;;
2898;SDS011;1459;50.864;6.438;2022-11-30T01:21:19;97.00;;;37.17;;
2898;SDS011;1459;50.864;6.438;2022-11-30T01:23:48;96.78;;;35.45;;
2898;SDS011;1459;50.864;6.438;2022-11-30T01:26:15;81.72;;;33.20;;
2898;SDS011;1459;50.864;6.438;2022-11-30T01:28:43;98.68;;;34.28;;
2898;SDS011;1459;50.864;6.438;2022-11-30T01:31:11;86.20;;;35.55;;
2898;SDS011;1459;50.864;6.438;2022-11-30T01:33:39;86.35;;;36.45;;
2898;SDS011;1459;50.864;6.438;2022-11-30T01:36:09;89.10;;;35.35;;
2898;SDS011;1459;50.864;6.438;2022-11-30T01:38:39;94.57;;;33.13;;
2898;SDS011;1459;50.864;6.438;2022-11-30T01:41:08;90.10;;;37.25;;
2898;SDS011;1459;50.864;6.438;2022-11-30T01:43:37;80.38;;;33.47;;
2898;SDS011;1459;50.864;6.438;2022-11-30T01:46:05;82.88;;;32.22;;
2898;SDS011;1459;50.864;6.438;2022-11-30T01:48:54;92.93;;;36.42;;
2898;SDS011;1459;50.864;6.438;2022-11-30T01:51:30;92.63;;;33.25;;
2898;SDS011;1459;50.864;6.438;2022-11-30T01:54:01;94.80;;;35.17;;
2898;SDS011;1459;50.864;6.438;2022-11-30T01:56:29;101.70;;;36.63;;
2898;SDS011;1459;50.864;6.438;2022-11-30T01:58:57;97.43;;;35.28;;
2898;SDS011;1459;50.864;6.438;2022-11-30T02:01:24;100.80;;;35.53;;
2898;SDS011;1459;50.864;6.438;2022-11-30T02:03:52;101.38;;;35.45;;
2898;SDS011;1459;50.864;6.438;2022-11-30T02:06:24;117.05;;;40.20;;
2898;SDS011;1459;50.864;6.438;2022-11-30T02:08:53;104.55;;;36.92;;
2898;SDS011;1459;50.864;6.438;2022-11-30T02:11:20;101.75;;;37.13;;
2898;SDS011;1459;50.864;6.438;2022-11-30T02:14:00;117.68;;;37.65;;
2898;SDS011;1459;50.864;6.438;2022-11-30T02:16:38;105.88;;;37.30;;
2898;SDS011;1459;50.864;6.438;2022-11-30T02:19:19;103.43;;;34.90;;
2898;SDS011;1459;50.864;6.438;2022-11-30T02:22:05;101.28;;;35.25;;
2898;SDS011;1459;50.864;6.438;2022-11-30T02:24:58;108.60;;;34.95;;
2898;SDS011;1459;50.864;6.438;2022-11-30T02:27:39;113.10;;;35.28;;
2898;SDS011;1459;50.864;6.438;2022-11-30T02:30:22;102.53;;;36.17;;
2898;SDS011;1459;50.864;6.438;2022-11-30T02:32:49;110.97;;;33.08;;
2898;SDS011;1459;50.864;6.438;2022-11-30T02:35:20;93.75;;;32.97;;
2898;SDS011;1459;50.864;6.438;2022-11-30T02:37:52;106.07;;;37.38;;
2898;SDS011;1459;50.864;6.438;2022-11-30T02:40:21;104.85;;;34.20;;
2898;SDS011;1459;50.864;6.438;2022-11-30T02:42:49;105.13;;;38.08;;
2898;SDS011;1459;50.864;6.438;2022-11-30T02:45:18;97.97;;;36.20;;
2898;SDS011;1459;50.864;6.438;2022-11-30T02:47:49;99.65;;;36.95;;
2898;SDS011;1459;50.864;6.438;2022-11-30T02:50:24;106.65;;;37.85;;
2898;SDS011;1459;50.864;6.438;2022-11-30T02:52:55;98.72;;;34.45;;
2898;SDS011;1459;50.864;6.438;2022-11-30T02:55:23;104.13;;;36.53;;
2898;SDS011;1459;50.864;6.438;2022-11-30T02:57:50;114.10;;;38.67;;
2898;SDS011;1459;50.864;6.438;2022-11-30T03:00:17;93.15;;;36.17;;
2898;SDS011;1459;50.864;6.438;2022-11-30T03:02:45;102.65;;;35.17;;
2898;SDS011;1459;50.864;6.438;2022-11-30T03:05:13;111.45;;;36.15;;
2898;SDS011;1459;50.864;6.438;2022-11-30T03:07:40;116.20;;;38.40;;
2898;SDS011;1459;50.864;6.438;2022-11-30T03:10:08;107.45;;;35.22;;
2898;SDS011;1459;50.864;6.438;2022-11-30T03:12:35;100.40;;;35.30;;
2898;SDS011;1459;50.864;6.438;2022-11-30T03:15:02;99.25;;;35.45;;
2898;SDS011;1459;50.864;6.438;2022-11-30T03:17:30;106.68;;;37.33;;
2898;SDS011;1459;50.864;6.438;2022-11-30T03:19:57;102.30;;;34.42;;
2898;SDS011;1459;50.864;6.438;2022-11-30T03:22:25;118.22;;;35.78;;
2898;SDS011;1459;50.864;6.438;2022-11-30T03:24:52;106.65;;;36.90;;
2898;SDS011;1459;50.864;6.438;2022-11-30T03:27:19;102.82;;;34.65;;
2898;SDS011;1459;50.864;6.438;2022-11-30T03:29:46;122.32;;;36.15;;
2898;SDS011;1459;50.864;6.438;2022-11-30T03:32:13;98.28;;;35.75;;
2898;SDS011;1459;50.864;6.438;2022-11-30T03:34:40;111.10;;;38.25;;
2898;SDS011;1459;50.864;6.438;2022-11-30T03:37:07;95.78;;;35.65;;
2898;SDS011;1459;50.864;6.438;2022-11-30T03:39:36;108.57;;;37.33;;
2898;SDS011;1459;50.864;6.438;2022-11-30T03:42:03;108.10;;;36.80;;
2898;SDS011;1459;50.864;6.438;2022-11-30T03:44:30;114.80;;;34.72;;
2898;SDS011;1459;50.864;6.438;2022-11-30T03:46:57;96.50;;;31.60;;
2898;SDS011;1459;50.864;6.438;2022-11-30T03:49:24;90.93;;;33.10;;
2898;SDS011;1459;50.864;6.438;2022-11-30T03:51:51;83.85;;;30.60;;
2898;SDS011;1459;50.864;6.438;2022-11-30T03:54:18;87.07;;;29.90;;
2898;SDS011;1459;50.864;6.438;2022-11-30T03:56:47;103.05;;;33.42;;
2898;SDS011;1459;50.864;6.438;2022-11-30T03:59:14;74.45;;;29.02;;
2898;SDS011;1459;50.864;6.438;2022-11-30T04:01:41;75.22;;;28.85;;
2898;SDS011;1459;50.864;6.438;2022-11-30T04:04:08;67.07;;;27.60;;
2898;SDS011;1459;50.864;6.438;2022-11-30T04:06:36;64.32;;;30.00;;
2898;SDS011;1459;50.864;6.438;2022-11-30T04:09:04;79.10;;;28.77;;
2898;SDS011;1459;50.864;6.438;2022-11-30T04:11:31;69.80;;;29.80;;
2898;SDS011;1459;50.864;6.438;2022-11-30T04:14:01;73.22;;;27.77;;
2898;SDS011;1459;50.864;6.438;2022-11-30T04:16:28;89.75;;;32.95;;
2898;SDS011;1459;50.864;6.438;2022-11-30T04:18:55;78.50;;;27.52;;
2898;SDS011;1459;50.864;6.438;2022-11-30T04:21:22;78.88;;;27.77;;
2898;SDS011;1459;50.864;6.438;2022-11-30T04:23:49;79.95;;;29.05;;
2898;SDS011;1459;50.864;6.438;2022-11-30T04:26:16;81.80;;;29.13;;
2898;SDS011;1459;50.864;6.438;2022-11-30T04:28:43;65.28;;;26.88;;
2898;SDS011;1459;50.864;6.438;2022-11-30T04:31:11;77.43;;;28.20;;
2898;SDS011;1459;50.864;6.438;2022-11-30T04:33:38;78.78;;;28.35;;
2898;SDS011;1459;50.864;6.438;2022-11-30T04:36:05;91.38;;;29.52;;
2898;SDS011;1459;50.864;6.438;2022-11-30T04:38:33;87.45;;;29.67;;
2898;SDS011;1459;50.864;6.438;2022-11-30T04:41:04;82.22;;;28.65;;
2898;SDS011;1459;50.864;6.438;2022-11-30T04:43:32;96.47;;;33.03;;
2898;SDS011;1459;50.864;6.438;2022-11-30T04:45:59;99.13;;;30.40;;
2898;SDS011;1459;50.864;6.438;2022-11-30T04:48:28;89.38;;;30.67;;
2898;SDS011;1459;50.864;6.438;2022-11-30T04:50:58;89.45;;;29.55;;
2898;SDS011;1459;50.864;6.438;2022-11-30T04:53:26;92.45;;;32.30;;
2898;SDS011;1459;50.864;6.438;2022-11-30T04:55:53;94.55;;;30.23;;
2898;SDS011;1459;50.864;6.438;2022-11-30T04:58:20;96.28;;;34.40;;
2898;SDS011;1459;50.864;6.438;2022-11-30T05:00:47;107.72;;;30.83;;
2898;SDS011;1459;50.864;6.438;2022-11-30T05:03:14;110.55;;;33.95;;
2898;SDS011;1459;50.864;6.438;2022-11-30T05:05:42;98.20;;;33.75;;
2898;SDS011;1459;50.864;6.438;2022-11-30T05:08:09;80.13;;;33.10;;
2898;SDS011;1459;50.864;6.438;2022-11-30T05:10:36;109.28;;;33.92;;
2898;SDS011;1459;50.864;6.438;2022-11-30T05:13:03;99.10;;;33.58;;
2898;SDS011;1459;50.864;6.438;2022-11-30T05:15:30;103.65;;;35.05;;
2898;SDS011;1459;50.864;6.438;2022-11-30T05:17:58;105.28;;;32.28;;
2898;SDS011;1459;50.864;6.438;2022-11-30T05:20:28;116.05;;;35.10;;
2898;SDS011;1459;50.864;6.438;2022-11-30T05:22:56;110.13;;;34.33;;
2898;SDS011;1459;50.864;6.438;2022-11-30T05:25:23;112.93;;;35.85;;
2898;SDS011;1459;50.864;6.438;2022-11-30T05:27:50;88.70;;;32.75;;
2898;SDS011;1459;50.864;6.438;2022-11-30T05:30:17;77.10;;;31.90;;
2898;SDS011;1459;50.864;6.438;2022-11-30T05:32:44;82.40;;;32.15;;
2898;SDS011;1459;50.864;6.438;2022-11-30T05:35:11;104.25;;;35.42;;
2898;SDS011;1459;50.864;6.438;2022-11-30T05:37:38;90.82;;;32.75;;
2898;SDS011;1459;50.864;6.438;2022-11-30T05:40:07;89.05;;;34.90;;
2898;SDS011;1459;50.864;6.438;2022-11-30T05:42:34;101.78;;;32.50;;
2898;SDS011;1459;50.864;6.438;2022-11-30T05:45:02;90.28;;;35.38;;
2898;SDS011;1459;50.864;6.438;2022-11-30T05:47:29;90.57;;;35.05;;
2898;SDS011;1459;50.864;6.438;2022-11-30T05:49:56;90.30;;;34.17;;
2898;SDS011;1459;50.864;6.438;2022-11-30T05:52:23;89.13;;;36.28;;
2898;SDS011;1459;50.864;6.438;2022-11-30T05:54:50;84.78;;;36.80;;
2898;SDS011;1459;50.864;6.438;2022-11-30T05:57:18;82.32;;;34.65;;
2898;SDS011;1459;50.864;6.438;2022-11-30T05:59:45;78.13;;;35.15;;
2898;SDS011;1459;50.864;6.438;2022-11-30T06:02:12;69.22;;;33.55;;
2898;SDS011;1459;50.864;6.438;2022-11-30T06:04:39;68.35;;;35.45;;
2898;SDS011;1459;50.864;6.438;2022-11-30T06:07:06;62.55;;;34.08;;
2898;SDS011;1459;50.864;6.438;2022-11-30T06:09:36;64.75;;;34.50;;
2898;SDS011;1459;50.864;6.438;2022-11-30T06:12:03;67.38;;;30.33;;
2898;SDS011;1459;50.864;6.438;2022-11-30T06:14:31;61.25;;;32.35;;
2898;SDS011;1459;50.864;6.438;2022-11-30T06:16:58;57.83;;;31.80;;
2898;SDS011;1459;50.864;6.438;2022-11-30T06:19:25;60.70;;;30.40;;
2898;SDS011;1459;50.864;6.438;2022-11-30T06:21:52;58.20;;;29.40;;
2898;SDS011;1459;50.864;6.438;2022-11-30T06:24:19;56.83;;;29.83;;
2898;SDS011;1459;50.864;6.438;2022-11-30T06:26:46;56.92;;;30.90;;
2898;SDS011;1459;50.864;6.438;2022-11-30T06:29:13;59.30;;;29.65;;
2898;SDS011;1459;50.864;6.438;2022-11-30T06:31:41;58.10;;;31.25;;
2898;SDS011;1459;50.864;6.438;2022-11-30T06:34:08;51.75;;;29.23;;
2898;SDS011;1459;50.864;6.438;2022-11-30T06:36:35;51.45;;;29.50;;
2898;SDS011;1459;50.864;6.438;2022-11-30T06:39:02;49.80;;;29.70;;
2898;SDS011;1459;50.864;6.438;2022-11-30T06:41:29;45.75;;;28.00;;
2898;SDS011;1459;50.864;6.438;2022-11-30T06:43:56;49.42;;;26.02;;
2898;SDS011;1459;50.864;6.438;2022-11-30T06:46:23;55.78;;;30.63;;
2898;SDS011;1459;50.864;6.438;2022-11-30T06:48:52;58.42;;;31.20;;
2898;SDS011;1459;50.864;6.438;2022-11-30T06:51:19;48.92;;;29.13;;
2898;SDS011;1459;50.864;6.438;2022-11-30T06:53:46;49.88;;;29.70;;
2898;SDS011;1459;50.864;6.438;2022-11-30T06:56:13;41.78;;;26.83;;
2898;SDS011;1459;50.864;6.438;2022-11-30T06:58:40;48.92;;;27.23;;
2898;SDS011;1459;50.864;6.438;2022-11-30T07:01:09;48.90;;;27.08;;
2898;SDS011;1459;50.864;6.438;2022-11-30T07:03:37;50.83;;;29.15;;
2898;SDS011;1459;50.864;6.438;2022-11-30T07:06:07;44.00;;;28.00;;
2898;SDS011;1459;50.864;6.438;2022-11-30T07:08:35;45.83;;;27.52;;
2898;SDS011;1459;50.864;6.438;2022-11-30T07:11:02;46.50;;;28.30;;
2898;SDS011;1459;50.864;6.438;2022-11-30T07:13:30;44.22;;;26.70;;
2898;SDS011;1459;50.864;6.438;2022-11-30T07:15:57;48.03;;;26.25;;
2898;SDS011;1459;50.864;6.438;2022-11-30T07:18:24;51.65;;;28.27;;
2898;SDS011;1459;50.864;6.438;2022-11-30T07:20:51;48.70;;;29.02;;
2898;SDS011;1459;50.864;6.438;2022-11-30T07:23:19;48.08;;;27.98;;
2898;SDS011;1459;50.864;6.438;2022-11-30T07:26:04;50.17;;;29.23;;
2898;SDS011;1459;50.864;6.438;2022-11-30T07:28:33;48.03;;;30.35;;
2898;SDS011;1459;50.864;6.438;2022-11-30T07:31:01;48.28;;;28.13;;
2898;SDS011;1459;50.864;6.438;2022-11-30T07:33:38;45.35;;;29.55;;
2898;SDS011;1459;50.864;6.438;2022-11-30T07:36:05;47.00;;;28.73;;
2898;SDS011;1459;50.864;6.438;2022-11-30T07:38:34;56.58;;;33.92;;
2898;SDS011;1459;50.864;6.438;2022-11-30T07:41:01;55.30;;;32.80;;
2898;SDS011;1459;50.864;6.438;2022-11-30T07:43:28;50.83;;;29.55;;
2898;SDS011;1459;50.864;6.438;2022-11-30T07:45:55;44.47;;;25.90;;
2898;SDS011;1459;50.864;6.438;2022-11-30T07:48:22;45.28;;;28.33;;
2898;SDS011;1459;50.864;6.438;2022-11-30T07:50:49;45.15;;;25.83;;
2898;SDS011;1459;50.864;6.438;2022-11-30T07:53:16;46.95;;;27.65;;
2898;SDS011;1459;50.864;6.438;2022-11-30T07:55:44;50.40;;;30.25;;
2898;SDS011;1459;50.864;6.438;2022-11-30T07:58:11;50.33;;;30.35;;
2898;SDS011;1459;50.864;6.438;2022-11-30T08:00:38;44.35;;;27.45;;
2898;SDS011;1459;50.864;6.438;2022-11-30T08:03:05;58.95;;;28.25;;
2898;SDS011;1459;50.864;6.438;2022-11-30T08:05:32;48.42;;;29.60;;
2898;SDS011;1459;50.864;6.438;2022-11-30T08:07:59;46.55;;;28.38;;
2898;SDS011;1459;50.864;6.438;2022-11-30T08:10:26;49.97;;;31.52;;
2898;SDS011;1459;50.864;6.438;2022-11-30T08:12:55;57.20;;;30.35;;
2898;SDS011;1459;50.864;6.438;2022-11-30T08:15:22;48.67;;;28.13;;
2898;SDS011;1459;50.864;6.438;2022-11-30T08:17:48;44.60;;;26.95;;
2898;SDS011;1459;50.864;6.438;2022-11-30T08:20:19;51.92;;;29.88;;
2898;SDS011;1459;50.864;6.438;2022-11-30T08:22:47;42.38;;;26.30;;
2898;SDS011;1459;50.864;6.438;2022-11-30T08:25:15;48.28;;;28.23;;
2898;SDS011;1459;50.864;6.438;2022-11-30T08:27:43;47.38;;;29.17;;
2898;SDS011;1459;50.864;6.438;2022-11-30T08:30:11;40.85;;;24.77;;
2898;SDS011;1459;50.864;6.438;2022-11-30T08:32:39;44.90;;;25.33;;
2898;SDS011;1459;50.864;6.438;2022-11-30T08:35:06;38.67;;;23.23;;
2898;SDS011;1459;50.864;6.438;2022-11-30T08:37:34;44.83;;;26.50;;
2898;SDS011;1459;50.864;6.438;2022-11-30T08:40:03;39.28;;;24.83;;
2898;SDS011;1459;50.864;6.438;2022-11-30T08:42:31;40.13;;;25.42;;
2898;SDS011;1459;50.864;6.438;2022-11-30T08:44:58;41.67;;;25.33;;
2898;SDS011;1459;50.864;6.438;2022-11-30T08:47:27;39.00;;;24.70;;
2898;SDS011;1459;50.864;6.438;2022-11-30T08:49:55;40.78;;;26.60;;
2898;SDS011;1459;50.864;6.438;2022-11-30T08:52:22;40.55;;;26.60;;
2898;SDS011;1459;50.864;6.438;2022-11-30T08:54:49;39.05;;;24.02;;
2898;SDS011;1459;50.864;6.438;2022-11-30T08:57:16;42.60;;;28.25;;
2898;SDS011;1459;50.864;6.438;2022-11-30T08:59:44;43.90;;;25.25;;
2898;SDS011;1459;50.864;6.438;2022-11-30T09:02:12;40.45;;;25.65;;
2898;SDS011;1459;50.864;6.438;2022-11-30T09:04:43;39.03;;;23.77;;
2898;SDS011;1459;50.864;6.438;2022-11-30T09:07:13;35.35;;;23.17;;
2898;SDS011;1459;50.864;6.438;2022-11-30T09:09:40;38.10;;;24.70;;
2898;SDS011;1459;50.864;6.438;2022-11-30T09:12:07;45.78;;;27.38;;
2898;SDS011;1459;50.864;6.438;2022-11-30T09:14:34;39.40;;;25.77;;
2898;SDS011;1459;50.864;6.438;2022-11-30T09:17:01;52.15;;;25.80;;
2898;SDS011;1459;50.864;6.438;2022-11-30T09:19:28;38.92;;;24.88;;
2898;SDS011;1459;50.864;6.438;2022-11-30T09:21:56;40.00;;;25.67;;
2898;SDS011;1459;50.864;6.438;2022-11-30T09:24:24;37.03;;;24.58;;
2898;SDS011;1459;50.864;6.438;2022-11-30T09:26:53;37.72;;;24.02;;
2898;SDS011;1459;50.864;6.438;2022-11-30T09:29:20;38.58;;;24.98;;
2898;SDS011;1459;50.864;6.438;2022-11-30T09:31:50;38.40;;;24.10;;
2898;SDS011;1459;50.864;6.438;2022-11-30T09:34:18;36.00;;;25.35;;
2898;SDS011;1459;50.864;6.438;2022-11-30T09:36:45;41.13;;;26.58;;
2898;SDS011;1459;50.864;6.438;2022-11-30T09:39:13;41.10;;;26.15;;
2898;SDS011;1459;50.864;6.438;2022-11-30T09:41:47;42.08;;;26.60;;
2898;SDS011;1459;50.864;6.438;2022-11-30T09:44:34;40.78;;;25.52;;
2898;SDS011;1459;50.864;6.438;2022-11-30T09:47:22;34.47;;;23.13;;
2898;SDS011;1459;50.864;6.438;2022-11-30T09:49:55;35.45;;;23.00;;
2898;SDS011;1459;50.864;6.438;2022-11-30T09:52:27;40.28;;;24.60;;
2898;SDS011;1459;50.864;6.438;2022-11-30T09:55:03;34.65;;;23.85;;
2898;SDS011;1459;50.864;6.438;2022-11-30T09:57:33;37.17;;;24.38;;
2898;SDS011;1459;50.864;6.438;2022-11-30T10:00:09;38.45;;;26.05;;
2898;SDS011;1459;50.864;6.438;2022-11-30T10:02:39;40.38;;;25.27;;
2898;SDS011;1459;50.864;6.438;2022-11-30T10:05:10;38.72;;;24.48;;
2898;SDS011;1459;50.864;6.438;2022-11-30T10:07:42;39.95;;;26.10;;
2898;SDS011;1459;50.864;6.438;2022-11-30T10:10:23;40.00;;;27.88;;
2898;SDS011;1459;50.864;6.438;2022-11-30T10:12:59;39.55;;;26.27;;
2898;SDS011;1459;50.864;6.438;2022-11-30T10:15:39;47.42;;;27.05;;
2898;SDS011;1459;50.864;6.438;2022-11-30T10:18:21;40.92;;;27.65;;
2898;SDS011;1459;50.864;6.438;2022-11-30T10:20:57;39.08;;;26.00;;
2898;SDS011;1459;50.864;6.438;2022-11-30T10:23:35;49.00;;;27.48;;
2898;SDS011;1459;50.864;6.438;2022-11-30T10:26:25;39.95;;;26.38;;
2898;SDS011;1459;50.864;6.438;2022-11-30T10:28:58;44.20;;;28.13;;
2898;SDS011;1459;50.864;6.438;2022-11-30T10:31:32;45.85;;;28.83;;
2898;SDS011;1459;50.864;6.438;2022-11-30T10:34:02;43.72;;;26.83;;
2898;SDS011;1459;50.864;6.438;2022-11-30T10:36:40;40.60;;;24.55;;
2898;SDS011;1459;50.864;6.438;2022-11-30T10:39:12;43.97;;;27.40;;
2898;SDS011;1459;50.864;6.438;2022-11-30T10:41:46;41.40;;;26.10;;
2898;SDS011;1459;50.864;6.438;2022-11-30T10:44:18;43.10;;;27.52;;
2898;SDS011;1459;50.864;6.438;2022-11-30T10:46:53;42.75;;;27.42;;
2898;SDS011;1459;50.864;6.438;2022-11-30T10:49:22;39.53;;;25.67;;
2898;SDS011;1459;50.864;6.438;2022-11-30T10:51:53;36.97;;;24.90;;
2898;SDS011;1459;50.864;6.438;2022-11-30T10:54:24;37.08;;;24.85;;
2898;SDS011;1459;50.864;6.438;2022-11-30T10:56:52;39.47;;;25.30;;
2898;SDS011;1459;50.864;6.438;2022-11-30T10:59:21;38.15;;;24.80;;
2898;SDS011;1459;50.864;6.438;2022-11-30T11:01:49;41.33;;;23.40;;
2898;SDS011;1459;50.864;6.438;2022-11-30T11:04:18;38.38;;;23.63;;
2898;SDS011;1459;50.864;6.438;2022-11-30T11:06:47;41.00;;;24.90;;
2898;SDS011;1459;50.864;6.438;2022-11-30T11:09:31;39.17;;;24.08;;
2898;SDS011;1459;50.864;6.438;2022-11-30T11:12:01;36.28;;;22.17;;
2898;SDS011;1459;50.864;6.438;2022-11-30T11:14:30;37.70;;;22.77;;
2898;SDS011;1459;50.864;6.438;2022-11-30T11:16:59;35.53;;;24.40;;
2898;SDS011;1459;50.864;6.438;2022-11-30T11:19:32;38.25;;;24.65;;
2898;SDS011;1459;50.864;6.438;2022-11-30T11:22:02;42.08;;;25.10;;
2898;SDS011;1459;50.864;6.438;2022-11-30T11:24:31;39.38;;;26.67;;
2898;SDS011;1459;50.864;6.438;2022-11-30T11:27:02;42.15;;;26.48;;
2898;SDS011;1459;50.864;6.438;2022-11-30T11:29:30;34.35;;;22.70;;
2898;SDS011;1459;50.864;6.438;2022-11-30T11:32:17;44.65;;;24.13;;
2898;SDS011;1459;50.864;6.438;2022-11-30T11:34:46;42.00;;;24.48;;
2898;SDS011;1459;50.864;6.438;2022-11-30T11:37:16;41.58;;;25.05;;
2898;SDS011;1459;50.864;6.438;2022-11-30T11:39:55;41.40;;;26.30;;
2898;SDS011;1459;50.864;6.438;2022-11-30T11:42:25;38.47;;;25.55;;
2898;SDS011;1459;50.864;6.438;2022-11-30T11:44:55;38.28;;;24.15;;
2898;SDS011;1459;50.864;6.438;2022-11-30T11:47:25;43.65;;;25.35;;
2898;SDS011;1459;50.864;6.438;2022-11-30T11:50:04;44.75;;;25.20;;
2898;SDS011;1459;50.864;6.438;2022-11-30T11:52:43;37.88;;;24.20;;
2898;SDS011;1459;50.864;6.438;2022-11-30T11:55:12;43.03;;;26.15;;
2898;SDS011;1459;50.864;6.438;2022-11-30T11:57:45;38.42;;;23.30;;
2898;SDS011;1459;50.864;6.438;2022-11-30T12:00:16;37.60;;;23.95;;
2898;SDS011;1459;50.864;6.438;2022-11-30T12:02:47;38.85;;;25.63;;
2898;SDS011;1459;50.864;6.438;2022-11-30T12:05:21;40.50;;;24.80;;
2898;SDS011;1459;50.864;6.438;2022-11-30T12:07:57;35.78;;;23.60;;
2898;SDS011;1459;50.864;6.438;2022-11-30T12:10:31;39.33;;;23.58;;
2898;SDS011;1459;50.864;6.438;2022-11-30T12:13:04;41.53;;;23.23;;
2898;SDS011;1459;50.864;6.438;2022-11-30T12:15:40;40.70;;;24.20;;
2898;SDS011;1459;50.864;6.438;2022-11-30T12:18:18;38.17;;;24.83;;
2898;SDS011;1459;50.864;6.438;2022-11-30T12:20:51;36.53;;;24.15;;
2898;SDS011;1459;50.864;6.438;2022-11-30T12:23:29;44.75;;;26.73;;
2898;SDS011;1459;50.864;6.438;2022-11-30T12:26:06;43.22;;;27.90;;
2898;SDS011;1459;50.864;6.438;2022-11-30T12:28:43;38.33;;;24.73;;
2898;SDS011;1459;50.864;6.438;2022-11-30T12:31:19;40.20;;;26.08;;
2898;SDS011;1459;50.864;6.438;2022-11-30T12:33:50;36.42;;;23.85;;
2898;SDS011;1459;50.864;6.438;2022-11-30T12:36:30;43.50;;;26.15;;
2898;SDS011;1459;50.864;6.438;2022-11-30T12:39:11;39.30;;;25.17;;
2898;SDS011;1459;50.864;6.438;2022-11-30T12:41:46;43.65;;;26.38;;
2898;SDS011;1459;50.864;6.438;2022-11-30T12:44:22;40.45;;;25.02;;
2898;SDS011;1459;50.864;6.438;2022-11-30T12:46:57;41.70;;;24.90;;
2898;SDS011;1459;50.864;6.438;2022-11-30T12:49:34;37.08;;;24.77;;
2898;SDS011;1459;50.864;6.438;2022-11-30T12:52:16;42.03;;;25.00;;
2898;SDS011;1459;50.864;6.438;2022-11-30T12:54:54;44.10;;;28.33;;
2898;SDS011;1459;50.864;6.438;2022-11-30T12:57:28;40.38;;;25.23;;
2898;SDS011;1459;50.864;6.438;2022-11-30T13:00:05;41.05;;;24.17;;
2898;SDS011;1459;50.864;6.438;2022-11-30T13:02:43;43.60;;;27.42;;
2898;SDS011;1459;50.864;6.438;2022-11-30T13:05:25;40.88;;;25.08;;
2898;SDS011;1459;50.864;6.438;2022-11-30T13:07:59;37.25;;;24.58;;
2898;SDS011;1459;50.864;6.438;2022-11-30T13:10:34;38.53;;;24.83;;
2898;SDS011;1459;50.864;6.438;2022-11-30T13:13:07;43.90;;;28.13;;
2898;SDS011;1459;50.864;6.438;2022-11-30T13:15:41;44.13;;;27.42;;
2898;SDS011;1459;50.864;6.438;2022-11-30T13:18:13;42.08;;;24.48;;
2898;SDS011;1459;50.864;6.438;2022-11-30T13:20:45;36.42;;;25.52;;
2898;SDS011;1459;50.864;6.438;2022-11-30T13:23:18;44.25;;;26.80;;
2898;SDS011;1459;50.864;6.438;2022-11-30T13:25:56;37.25;;;24.30;;
2898;SDS011;1459;50.864;6.438;2022-11-30T13:28:30;34.85;;;22.90;;
2898;SDS011;1459;50.864;6.438;2022-11-30T13:31:09;42.97;;;25.00;;
2898;SDS011;1459;50.864;6.438;2022-11-30T13:33:46;39.55;;;26.20;;
2898;SDS011;1459;50.864;6.438;2022-11-30T13:42:11;42.78;;;26.92;;
2898;SDS011;1459;50.864;6.438;2022-11-30T13:44:54;40.08;;;24.50;;
2898;SDS011;1459;50.864;6.438;2022-11-30T13:47:27;42.78;;;26.58;;
2898;SDS011;1459;50.864;6.438;2022-11-30T13:49:56;48.65;;;28.20;;
2898;SDS011;1459;50.864;6.438;2022-11-30T13:55:48;47.00;;;24.75;;
2898;SDS011;1459;50.864;6.438;2022-11-30T13:58:23;43.72;;;26.95;;
2898;SDS011;1459;50.864;6.438;2022-11-30T14:01:01;43.00;;;26.13;;
2898;SDS011;1459;50.864;6.438;2022-11-30T14:03:31;37.85;;;24.90;;
2898;SDS011;1459;50.864;6.438;2022-11-30T14:05:58;42.17;;;26.08;;
2898;SDS011;1459;50.864;6.438;2022-11-30T14:17:09;47.38;;;27.42;;
2898;SDS011;1459;50.864;6.438;2022-11-30T14:19:43;41.70;;;25.20;;
2898;SDS011;1459;50.864;6.438;2022-11-30T14:22:11;45.05;;;27.60;;
2898;SDS011;1459;50.864;6.438;2022-11-30T14:24:40;57.75;;;32.53;;
2898;SDS011;1459;50.864;6.438;2022-11-30T14:27:13;49.15;;;29.83;;
2898;SDS011;1459;50.864;6.438;2022-11-30T14:29:42;47.30;;;28.15;;
2898;SDS011;1459;50.864;6.438;2022-11-30T14:32:17;40.47;;;25.52;;
2898;SDS011;1459;50.864;6.438;2022-11-30T14:35:00;40.15;;;27.17;;
2898;SDS011;1459;50.864;6.438;2022-11-30T14:37:34;40.25;;;26.15;;
2898;SDS011;1459;50.864;6.438;2022-11-30T14:40:07;41.42;;;28.00;;
2898;SDS011;1459;50.864;6.438;2022-11-30T14:42:44;43.40;;;28.08;;
2898;SDS011;1459;50.864;6.438;2022-11-30T14:45:13;36.47;;;24.08;;
2898;SDS011;1459;50.864;6.438;2022-11-30T14:47:49;37.60;;;25.02;;
2898;SDS011;1459;50.864;6.438;2022-11-30T14:50:23;41.90;;;27.45;;
2898;SDS011;1459;50.864;6.438;2022-11-30T14:52:54;40.40;;;26.05;;
2898;SDS011;1459;50.864;6.438;2022-11-30T14:55:30;41.75;;;25.45;;
2898;SDS011;1459;50.864;6.438;2022-11-30T14:58:05;39.50;;;24.90;;
2898;SDS011;1459;50.864;6.438;2022-11-30T15:00:41;36.42;;;22.70;;
2898;SDS011;1459;50.864;6.438;2022-11-30T15:03:15;42.38;;;26.85;;
2898;SDS011;1459;50.864;6.438;2022-11-30T15:05:51;41.30;;;27.42;;
2898;SDS011;1459;50.864;6.438;2022-11-30T15:08:19;40.78;;;26.48;;
2898;SDS011;1459;50.864;6.438;2022-11-30T15:10:47;37.70;;;24.50;;
2898;SDS011;1459;50.864;6.438;2022-11-30T15:13:14;35.55;;;25.42;;
2898;SDS011;1459;50.864;6.438;2022-11-30T15:15:51;34.63;;;24.10;;
2898;SDS011;1459;50.864;6.438;2022-11-30T15:18:19;38.13;;;23.98;;
2898;SDS011;1459;50.864;6.438;2022-11-30T15:20:48;32.70;;;22.85;;